sensor_id;sensor_type;location;lat;lon;timestamp;P1;durP1;ratioP1;P2;durP2;ratioP2
8361;SDS011;4218;48.326;14.304;2023-04-03T00:00:59;10.67;;;10.20;;
8361;SDS011;4218;48.326;14.304;2023-04-03T00:03:24;13.67;;;13.07;;
8361;SDS011;4218;48.326;14.304;2023-04-03T00:05:50;12.40;;;11.90;;
8361;SDS011;4218;48.326;14.304;2023-04-03T00:08:16;12.87;;;12.27;;
8361;SDS011;4218;48.326;14.304;2023-04-03T00:10:41;14.27;;;13.57;;
8361;SDS011;4218;48.326;14.304;2023-04-03T00:13:07;12.03;;;11.53;;
8361;SDS011;4218;48.326;14.304;2023-04-03T00:15:34;13.67;;;13.03;;
8361;SDS011;4218;48.326;14.304;2023-04-03T00:18:00;12.43;;;11.67;;
8361;SDS011;4218;48.326;14.304;2023-04-03T00:20:26;11.80;;;11.30;;
8361;SDS011;4218;48.326;14.304;2023-04-03T00:22:52;10.40;;;9.90;;
8361;SDS011;4218;48.326;14.304;2023-04-03T00:25:18;12.37;;;11.87;;
8361;SDS011;4218;48.326;14.304;2023-04-03T00:27:43;10.20;;;9.80;;
8361;SDS011;4218;48.326;14.304;2023-04-03T00:30:09;10.23;;;9.83;;
8361;SDS011;4218;48.326;14.304;2023-04-03T00:32:37;10.57;;;10.07;;
8361;SDS011;4218;48.326;14.304;2023-04-03T00:35:03;9.80;;;9.37;;
8361;SDS011;4218;48.326;14.304;2023-04-03T00:37:29;10.57;;;10.13;;
8361;SDS011;4218;48.326;14.304;2023-04-03T00:39:55;14.00;;;13.40;;
8361;SDS011;4218;48.326;14.304;2023-04-03T00:42:21;11.43;;;10.93;;
8361;SDS011;4218;48.326;14.304;2023-04-03T00:47:13;10.53;;;10.13;;
8361;SDS011;4218;48.326;14.304;2023-04-03T00:49:41;9.97;;;9.53;;
8361;SDS011;4218;48.326;14.304;2023-04-03T00:52:09;11.63;;;11.03;;
8361;SDS011;4218;48.326;14.304;2023-04-03T00:54:38;13.23;;;12.63;;
8361;SDS011;4218;48.326;14.304;2023-04-03T00:57:04;11.90;;;11.30;;
8361;SDS011;4218;48.326;14.304;2023-04-03T00:59:32;11.77;;;11.27;;
8361;SDS011;4218;48.326;14.304;2023-04-03T01:02:00;9.80;;;9.40;;
8361;SDS011;4218;48.326;14.304;2023-04-03T01:04:30;11.30;;;10.70;;
8361;SDS011;4218;48.326;14.304;2023-04-03T01:06:59;10.90;;;10.40;;
8361;SDS011;4218;48.326;14.304;2023-04-03T01:09:30;10.47;;;9.97;;
8361;SDS011;4218;48.326;14.304;2023-04-03T01:14:48;12.60;;;12.00;;
8361;SDS011;4218;48.326;14.304;2023-04-03T01:25:26;11.77;;;11.27;;
8361;SDS011;4218;48.326;14.304;2023-04-03T01:27:52;9.00;;;8.60;;
8361;SDS011;4218;48.326;14.304;2023-04-03T01:30:18;9.60;;;9.20;;
8361;SDS011;4218;48.326;14.304;2023-04-03T01:32:45;9.70;;;9.30;;
8361;SDS011;4218;48.326;14.304;2023-04-03T01:35:11;13.13;;;12.60;;
8361;SDS011;4218;48.326;14.304;2023-04-03T01:37:37;9.50;;;9.10;;
8361;SDS011;4218;48.326;14.304;2023-04-03T01:40:03;9.60;;;9.20;;
8361;SDS011;4218;48.326;14.304;2023-04-03T01:42:29;8.90;;;8.40;;
8361;SDS011;4218;48.326;14.304;2023-04-03T01:44:54;10.43;;;9.93;;
8361;SDS011;4218;48.326;14.304;2023-04-03T01:47:20;10.30;;;9.80;;
8361;SDS011;4218;48.326;14.304;2023-04-03T01:49:46;8.90;;;8.50;;
8361;SDS011;4218;48.326;14.304;2023-04-03T01:52:11;10.00;;;9.60;;
8361;SDS011;4218;48.326;14.304;2023-04-03T01:54:37;9.73;;;9.33;;
8361;SDS011;4218;48.326;14.304;2023-04-03T01:57:02;11.13;;;10.63;;
8361;SDS011;4218;48.326;14.304;2023-04-03T01:59:28;11.27;;;10.77;;
8361;SDS011;4218;48.326;14.304;2023-04-03T02:01:53;10.83;;;10.33;;
8361;SDS011;4218;48.326;14.304;2023-04-03T02:04:18;8.87;;;8.43;;
8361;SDS011;4218;48.326;14.304;2023-04-03T02:06:44;11.33;;;10.90;;
8361;SDS011;4218;48.326;14.304;2023-04-03T02:09:10;12.17;;;11.63;;
8361;SDS011;4218;48.326;14.304;2023-04-03T02:11:35;10.73;;;10.23;;
8361;SDS011;4218;48.326;14.304;2023-04-03T02:14:01;10.73;;;10.27;;
8361;SDS011;4218;48.326;14.304;2023-04-03T02:16:26;8.97;;;8.57;;
8361;SDS011;4218;48.326;14.304;2023-04-03T02:18:51;11.57;;;10.87;;
8361;SDS011;4218;48.326;14.304;2023-04-03T02:21:17;10.90;;;10.30;;
8361;SDS011;4218;48.326;14.304;2023-04-03T02:23:42;11.57;;;11.00;;
8361;SDS011;4218;48.326;14.304;2023-04-03T02:26:09;16.90;;;16.13;;
8361;SDS011;4218;48.326;14.304;2023-04-03T02:28:36;10.23;;;9.73;;
8361;SDS011;4218;48.326;14.304;2023-04-03T02:31:02;12.20;;;11.60;;
8361;SDS011;4218;48.326;14.304;2023-04-03T02:33:28;10.80;;;10.30;;
8361;SDS011;4218;48.326;14.304;2023-04-03T02:35:55;12.47;;;11.87;;
8361;SDS011;4218;48.326;14.304;2023-04-03T02:38:21;12.33;;;11.73;;
8361;SDS011;4218;48.326;14.304;2023-04-03T02:40:47;9.57;;;9.17;;
8361;SDS011;4218;48.326;14.304;2023-04-03T02:43:13;9.10;;;8.70;;
8361;SDS011;4218;48.326;14.304;2023-04-03T02:45:38;11.57;;;10.97;;
8361;SDS011;4218;48.326;14.304;2023-04-03T02:48:03;10.83;;;10.23;;
8361;SDS011;4218;48.326;14.304;2023-04-03T02:50:29;9.47;;;8.97;;
8361;SDS011;4218;48.326;14.304;2023-04-03T02:52:55;9.70;;;9.20;;
8361;SDS011;4218;48.326;14.304;2023-04-03T02:55:21;13.50;;;12.70;;
8361;SDS011;4218;48.326;14.304;2023-04-03T02:57:46;9.87;;;9.37;;
8361;SDS011;4218;48.326;14.304;2023-04-03T03:00:15;13.57;;;12.87;;
8361;SDS011;4218;48.326;14.304;2023-04-03T03:02:40;10.93;;;10.43;;
8361;SDS011;4218;48.326;14.304;2023-04-03T03:05:06;12.00;;;11.47;;
8361;SDS011;4218;48.326;14.304;2023-04-03T03:07:32;12.77;;;12.13;;
8361;SDS011;4218;48.326;14.304;2023-04-03T03:09:58;12.50;;;11.90;;
8361;SDS011;4218;48.326;14.304;2023-04-03T03:12:23;13.47;;;12.87;;
8361;SDS011;4218;48.326;14.304;2023-04-03T03:14:49;11.30;;;10.53;;
8361;SDS011;4218;48.326;14.304;2023-04-03T03:17:15;14.80;;;14.10;;
8361;SDS011;4218;48.326;14.304;2023-04-03T03:19:41;11.10;;;10.60;;
8361;SDS011;4218;48.326;14.304;2023-04-03T03:22:07;10.60;;;10.10;;
8361;SDS011;4218;48.326;14.304;2023-04-03T03:24:33;15.00;;;14.20;;
8361;SDS011;4218;48.326;14.304;2023-04-03T03:26:58;11.83;;;11.23;;
8361;SDS011;4218;48.326;14.304;2023-04-03T03:29:24;13.13;;;12.43;;
8361;SDS011;4218;48.326;14.304;2023-04-03T03:31:49;10.23;;;9.73;;
8361;SDS011;4218;48.326;14.304;2023-04-03T03:34:14;10.93;;;10.43;;
8361;SDS011;4218;48.326;14.304;2023-04-03T03:36:40;11.80;;;11.00;;
8361;SDS011;4218;48.326;14.304;2023-04-03T03:39:06;12.80;;;12.10;;
8361;SDS011;4218;48.326;14.304;2023-04-03T03:41:31;22.73;;;21.73;;
8361;SDS011;4218;48.326;14.304;2023-04-03T03:43:57;18.60;;;17.70;;
8361;SDS011;4218;48.326;14.304;2023-04-03T03:46:22;11.47;;;10.93;;
8361;SDS011;4218;48.326;14.304;2023-04-03T03:48:47;11.33;;;10.73;;
8361;SDS011;4218;48.326;14.304;2023-04-03T03:51:13;19.73;;;18.77;;
8361;SDS011;4218;48.326;14.304;2023-04-03T03:53:38;13.23;;;12.30;;
8361;SDS011;4218;48.326;14.304;2023-04-03T03:56:04;18.97;;;18.03;;
8361;SDS011;4218;48.326;14.304;2023-04-03T03:58:30;22.37;;;21.37;;
8361;SDS011;4218;48.326;14.304;2023-04-03T04:00:59;29.90;;;28.30;;
8361;SDS011;4218;48.326;14.304;2023-04-03T04:03:26;57.67;;;54.77;;
8361;SDS011;4218;48.326;14.304;2023-04-03T04:05:51;33.33;;;31.70;;
8361;SDS011;4218;48.326;14.304;2023-04-03T04:08:16;15.50;;;14.70;;
8361;SDS011;4218;48.326;14.304;2023-04-03T04:10:42;13.73;;;13.13;;
8361;SDS011;4218;48.326;14.304;2023-04-03T04:13:07;13.60;;;12.80;;
8361;SDS011;4218;48.326;14.304;2023-04-03T04:15:33;12.03;;;11.20;;
8361;SDS011;4218;48.326;14.304;2023-04-03T04:17:58;11.13;;;10.57;;
8361;SDS011;4218;48.326;14.304;2023-04-03T04:20:24;10.47;;;9.87;;
8361;SDS011;4218;48.326;14.304;2023-04-03T04:22:49;12.93;;;12.13;;
8361;SDS011;4218;48.326;14.304;2023-04-03T04:25:15;11.60;;;11.00;;
8361;SDS011;4218;48.326;14.304;2023-04-03T04:27:40;10.83;;;10.23;;
8361;SDS011;4218;48.326;14.304;2023-04-03T04:30:06;13.73;;;12.93;;
8361;SDS011;4218;48.326;14.304;2023-04-03T04:32:32;10.83;;;10.23;;
8361;SDS011;4218;48.326;14.304;2023-04-03T04:34:57;11.60;;;10.77;;
8361;SDS011;4218;48.326;14.304;2023-04-03T04:37:23;11.07;;;10.40;;
8361;SDS011;4218;48.326;14.304;2023-04-03T04:39:48;12.83;;;12.13;;
8361;SDS011;4218;48.326;14.304;2023-04-03T04:42:13;14.83;;;14.13;;
8361;SDS011;4218;48.326;14.304;2023-04-03T04:44:39;13.23;;;12.53;;
8361;SDS011;4218;48.326;14.304;2023-04-03T04:47:05;10.60;;;10.00;;
8361;SDS011;4218;48.326;14.304;2023-04-03T04:49:30;13.97;;;13.37;;
8361;SDS011;4218;48.326;14.304;2023-04-03T04:51:56;11.57;;;10.80;;
8361;SDS011;4218;48.326;14.304;2023-04-03T04:54:21;13.13;;;12.43;;
8361;SDS011;4218;48.326;14.304;2023-04-03T04:56:46;12.47;;;11.77;;
8361;SDS011;4218;48.326;14.304;2023-04-03T04:59:12;11.30;;;10.60;;
8361;SDS011;4218;48.326;14.304;2023-04-03T05:01:37;12.33;;;11.63;;
8361;SDS011;4218;48.326;14.304;2023-04-03T05:04:03;15.60;;;14.90;;
8361;SDS011;4218;48.326;14.304;2023-04-03T05:06:28;13.80;;;13.10;;
8361;SDS011;4218;48.326;14.304;2023-04-03T05:08:56;11.17;;;10.57;;
8361;SDS011;4218;48.326;14.304;2023-04-03T05:11:22;14.03;;;13.43;;
8361;SDS011;4218;48.326;14.304;2023-04-03T05:13:47;12.17;;;11.53;;
8361;SDS011;4218;48.326;14.304;2023-04-03T05:16:12;13.73;;;13.03;;
8361;SDS011;4218;48.326;14.304;2023-04-03T05:18:38;12.83;;;12.13;;
8361;SDS011;4218;48.326;14.304;2023-04-03T05:21:03;12.53;;;11.47;;
8361;SDS011;4218;48.326;14.304;2023-04-03T05:23:29;12.27;;;11.57;;
8361;SDS011;4218;48.326;14.304;2023-04-03T05:25:54;12.13;;;11.33;;
8361;SDS011;4218;48.326;14.304;2023-04-03T05:28:20;13.73;;;12.97;;
8361;SDS011;4218;48.326;14.304;2023-04-03T05:30:52;10.57;;;10.00;;
8361;SDS011;4218;48.326;14.304;2023-04-03T05:33:19;15.63;;;14.93;;
8361;SDS011;4218;48.326;14.304;2023-04-03T05:35:44;12.90;;;12.30;;
8361;SDS011;4218;48.326;14.304;2023-04-03T05:38:10;13.80;;;13.10;;
8361;SDS011;4218;48.326;14.304;2023-04-03T05:40:35;14.90;;;14.20;;
8361;SDS011;4218;48.326;14.304;2023-04-03T05:43:01;13.63;;;13.00;;
8361;SDS011;4218;48.326;14.304;2023-04-03T05:45:26;12.67;;;11.83;;
8361;SDS011;4218;48.326;14.304;2023-04-03T05:47:51;13.90;;;13.00;;
8361;SDS011;4218;48.326;14.304;2023-04-03T05:50:17;11.57;;;11.03;;
8361;SDS011;4218;48.326;14.304;2023-04-03T05:52:43;11.20;;;10.60;;
8361;SDS011;4218;48.326;14.304;2023-04-03T05:55:10;14.83;;;13.93;;
8361;SDS011;4218;48.326;14.304;2023-04-03T05:57:35;13.67;;;12.97;;
8361;SDS011;4218;48.326;14.304;2023-04-03T06:00:02;13.13;;;12.37;;
8361;SDS011;4218;48.326;14.304;2023-04-03T06:02:32;10.90;;;10.07;;
8361;SDS011;4218;48.326;14.304;2023-04-03T06:04:57;26.13;;;24.77;;
8361;SDS011;4218;48.326;14.304;2023-04-03T06:07:24;13.33;;;12.20;;
8361;SDS011;4218;48.326;14.304;2023-04-03T06:09:53;13.40;;;12.73;;
8361;SDS011;4218;48.326;14.304;2023-04-03T06:12:20;12.43;;;11.70;;
8361;SDS011;4218;48.326;14.304;2023-04-03T06:14:46;14.40;;;13.60;;
8361;SDS011;4218;48.326;14.304;2023-04-03T06:17:12;25.33;;;24.03;;
8361;SDS011;4218;48.326;14.304;2023-04-03T06:19:38;13.47;;;12.63;;
8361;SDS011;4218;48.326;14.304;2023-04-03T06:22:04;16.90;;;16.00;;
8361;SDS011;4218;48.326;14.304;2023-04-03T06:24:29;20.23;;;19.03;;
8361;SDS011;4218;48.326;14.304;2023-04-03T06:26:56;20.10;;;19.00;;
8361;SDS011;4218;48.326;14.304;2023-04-03T06:29:22;22.57;;;21.53;;
8361;SDS011;4218;48.326;14.304;2023-04-03T06:31:48;21.67;;;20.50;;
8361;SDS011;4218;48.326;14.304;2023-04-03T06:34:14;20.13;;;19.07;;
8361;SDS011;4218;48.326;14.304;2023-04-03T06:36:40;24.17;;;23.07;;
8361;SDS011;4218;48.326;14.304;2023-04-03T06:39:06;22.33;;;21.13;;
8361;SDS011;4218;48.326;14.304;2023-04-03T06:41:32;20.40;;;19.40;;
8361;SDS011;4218;48.326;14.304;2023-04-03T06:43:58;21.23;;;20.17;;
8361;SDS011;4218;48.326;14.304;2023-04-03T06:46:24;18.87;;;17.97;;
8361;SDS011;4218;48.326;14.304;2023-04-03T06:48:51;20.57;;;19.47;;
8361;SDS011;4218;48.326;14.304;2023-04-03T06:51:18;24.47;;;23.37;;
8361;SDS011;4218;48.326;14.304;2023-04-03T06:53:55;26.67;;;25.43;;
8361;SDS011;4218;48.326;14.304;2023-04-03T06:56:24;26.80;;;25.50;;
8361;SDS011;4218;48.326;14.304;2023-04-03T06:59:00;24.30;;;23.10;;
8361;SDS011;4218;48.326;14.304;2023-04-03T07:01:49;23.50;;;22.27;;
8361;SDS011;4218;48.326;14.304;2023-04-03T07:04:15;24.07;;;22.87;;
8361;SDS011;4218;48.326;14.304;2023-04-03T07:07:02;22.87;;;21.67;;
8361;SDS011;4218;48.326;14.304;2023-04-03T07:09:44;20.93;;;19.93;;
8361;SDS011;4218;48.326;14.304;2023-04-03T07:12:19;19.10;;;18.20;;
8361;SDS011;4218;48.326;14.304;2023-04-03T07:17:44;21.57;;;20.40;;
8361;SDS011;4218;48.326;14.304;2023-04-03T07:20:12;29.07;;;27.33;;
8361;SDS011;4218;48.326;14.304;2023-04-03T07:22:49;20.30;;;19.20;;
8361;SDS011;4218;48.326;14.304;2023-04-03T07:25:19;17.03;;;16.13;;
8361;SDS011;4218;48.326;14.304;2023-04-03T07:27:55;16.30;;;15.50;;
8361;SDS011;4218;48.326;14.304;2023-04-03T07:30:50;20.57;;;19.27;;
8361;SDS011;4218;48.326;14.304;2023-04-03T07:36:38;16.77;;;15.87;;
8361;SDS011;4218;48.326;14.304;2023-04-03T07:39:29;15.47;;;14.67;;
8361;SDS011;4218;48.326;14.304;2023-04-03T07:42:07;11.80;;;11.30;;
8361;SDS011;4218;48.326;14.304;2023-04-03T07:44:43;16.20;;;15.40;;
8361;SDS011;4218;48.326;14.304;2023-04-03T07:47:12;14.73;;;13.83;;
8361;SDS011;4218;48.326;14.304;2023-04-03T07:49:51;15.97;;;14.97;;
8361;SDS011;4218;48.326;14.304;2023-04-03T07:52:35;21.50;;;20.50;;
8361;SDS011;4218;48.326;14.304;2023-04-03T07:55:01;20.50;;;19.50;;
8361;SDS011;4218;48.326;14.304;2023-04-03T07:57:35;24.47;;;23.30;;
8361;SDS011;4218;48.326;14.304;2023-04-03T08:00:14;23.23;;;22.03;;
8361;SDS011;4218;48.326;14.304;2023-04-03T08:05:51;20.83;;;19.83;;
8361;SDS011;4218;48.326;14.304;2023-04-03T08:08:20;15.73;;;14.83;;
8361;SDS011;4218;48.326;14.304;2023-04-03T08:11:05;20.87;;;19.80;;
8361;SDS011;4218;48.326;14.304;2023-04-03T08:13:33;14.53;;;13.83;;
8361;SDS011;4218;48.326;14.304;2023-04-03T08:16:22;14.57;;;13.83;;
8361;SDS011;4218;48.326;14.304;2023-04-03T08:18:48;21.03;;;20.03;;
8361;SDS011;4218;48.326;14.304;2023-04-03T08:21:13;21.10;;;19.50;;
8361;SDS011;4218;48.326;14.304;2023-04-03T08:23:39;18.53;;;17.30;;
8361;SDS011;4218;48.326;14.304;2023-04-03T08:26:07;19.23;;;18.23;;
8361;SDS011;4218;48.326;14.304;2023-04-03T08:28:39;16.43;;;15.67;;
8361;SDS011;4218;48.326;14.304;2023-04-03T08:31:12;15.07;;;14.37;;
8361;SDS011;4218;48.326;14.304;2023-04-03T08:33:40;15.77;;;14.93;;
8361;SDS011;4218;48.326;14.304;2023-04-03T08:36:06;13.03;;;12.43;;
8361;SDS011;4218;48.326;14.304;2023-04-03T08:38:48;11.57;;;10.87;;
8361;SDS011;4218;48.326;14.304;2023-04-03T08:44:03;15.67;;;14.77;;
8361;SDS011;4218;48.326;14.304;2023-04-03T08:49:10;10.43;;;9.93;;
8361;SDS011;4218;48.326;14.304;2023-04-03T08:51:42;10.83;;;10.33;;
8361;SDS011;4218;48.326;14.304;2023-04-03T08:54:21;10.63;;;10.13;;
8361;SDS011;4218;48.326;14.304;2023-04-03T08:57:10;11.83;;;11.33;;
8361;SDS011;4218;48.326;14.304;2023-04-03T08:59:39;10.00;;;9.57;;
8361;SDS011;4218;48.326;14.304;2023-04-03T09:04:56;11.37;;;10.87;;
8361;SDS011;4218;48.326;14.304;2023-04-03T09:07:31;12.00;;;11.50;;
8361;SDS011;4218;48.326;14.304;2023-04-03T09:10:04;12.53;;;12.03;;
8361;SDS011;4218;48.326;14.304;2023-04-03T09:12:34;12.10;;;11.50;;
8361;SDS011;4218;48.326;14.304;2023-04-03T09:25:53;12.30;;;11.63;;
8361;SDS011;4218;48.326;14.304;2023-04-03T09:28:26;13.03;;;12.53;;
8361;SDS011;4218;48.326;14.304;2023-04-03T09:30:53;13.00;;;12.33;;
8361;SDS011;4218;48.326;14.304;2023-04-03T09:33:19;14.03;;;13.33;;
8361;SDS011;4218;48.326;14.304;2023-04-03T09:35:46;12.40;;;11.80;;
8361;SDS011;4218;48.326;14.304;2023-04-03T09:40:39;11.40;;;10.90;;
8361;SDS011;4218;48.326;14.304;2023-04-03T09:43:20;10.93;;;10.33;;
8361;SDS011;4218;48.326;14.304;2023-04-03T09:46:15;9.87;;;9.07;;
8361;SDS011;4218;48.326;14.304;2023-04-03T09:49:01;10.87;;;10.40;;
8361;SDS011;4218;48.326;14.304;2023-04-03T09:51:29;11.90;;;11.33;;
8361;SDS011;4218;48.326;14.304;2023-04-03T09:53:56;11.67;;;10.97;;
8361;SDS011;4218;48.326;14.304;2023-04-03T09:56:23;12.07;;;11.37;;
8361;SDS011;4218;48.326;14.304;2023-04-03T10:01:28;12.57;;;11.90;;
8361;SDS011;4218;48.326;14.304;2023-04-03T10:06:46;9.77;;;9.37;;
8361;SDS011;4218;48.326;14.304;2023-04-03T10:09:26;11.70;;;10.90;;
8361;SDS011;4218;48.326;14.304;2023-04-03T10:12:07;10.93;;;9.97;;
8361;SDS011;4218;48.326;14.304;2023-04-03T10:14:54;10.43;;;9.93;;
8361;SDS011;4218;48.326;14.304;2023-04-03T10:25:21;10.57;;;10.17;;
8361;SDS011;4218;48.326;14.304;2023-04-03T10:28:10;11.93;;;11.33;;
8361;SDS011;4218;48.326;14.304;2023-04-03T10:38:46;11.63;;;11.13;;
8361;SDS011;4218;48.326;14.304;2023-04-03T10:44:14;10.17;;;9.57;;
8361;SDS011;4218;48.326;14.304;2023-04-03T10:52:37;11.70;;;10.90;;
8361;SDS011;4218;48.326;14.304;2023-04-03T10:57:53;12.23;;;11.53;;
8361;SDS011;4218;48.326;14.304;2023-04-03T11:00:25;13.77;;;13.17;;
8361;SDS011;4218;48.326;14.304;2023-04-03T11:03:27;12.70;;;12.00;;
8361;SDS011;4218;48.326;14.304;2023-04-03T11:05:57;13.13;;;12.53;;
8361;SDS011;4218;48.326;14.304;2023-04-03T11:08:27;13.50;;;12.70;;
8361;SDS011;4218;48.326;14.304;2023-04-03T11:11:06;13.40;;;12.83;;
8361;SDS011;4218;48.326;14.304;2023-04-03T11:16:47;14.90;;;14.00;;
8361;SDS011;4218;48.326;14.304;2023-04-03T11:22:27;18.80;;;17.90;;
8361;SDS011;4218;48.326;14.304;2023-04-03T11:24:58;12.80;;;12.20;;
8361;SDS011;4218;48.326;14.304;2023-04-03T11:27:24;14.57;;;13.77;;
8361;SDS011;4218;48.326;14.304;2023-04-03T11:29:55;16.27;;;15.30;;
8361;SDS011;4218;48.326;14.304;2023-04-03T11:35:00;12.60;;;12.07;;
8361;SDS011;4218;48.326;14.304;2023-04-03T11:37:33;12.43;;;11.80;;
8361;SDS011;4218;48.326;14.304;2023-04-03T11:42:49;10.50;;;9.90;;
8361;SDS011;4218;48.326;14.304;2023-04-03T11:48:23;12.20;;;11.70;;
8361;SDS011;4218;48.326;14.304;2023-04-03T11:50:52;15.23;;;14.43;;
8361;SDS011;4218;48.326;14.304;2023-04-03T11:56:39;12.20;;;11.60;;
8361;SDS011;4218;48.326;14.304;2023-04-03T12:01:56;13.77;;;12.90;;
8361;SDS011;4218;48.326;14.304;2023-04-03T12:04:23;13.73;;;13.00;;
8361;SDS011;4218;48.326;14.304;2023-04-03T12:07:32;14.27;;;13.57;;
8361;SDS011;4218;48.326;14.304;2023-04-03T12:21:05;11.67;;;11.23;;
8361;SDS011;4218;48.326;14.304;2023-04-03T12:23:56;10.87;;;10.40;;
8361;SDS011;4218;48.326;14.304;2023-04-03T12:26:50;12.00;;;11.50;;
8361;SDS011;4218;48.326;14.304;2023-04-03T12:29:29;11.57;;;10.97;;
8361;SDS011;4218;48.326;14.304;2023-04-03T12:37:16;9.70;;;9.30;;
8361;SDS011;4218;48.326;14.304;2023-04-03T12:43:01;20.53;;;19.53;;
8361;SDS011;4218;48.326;14.304;2023-04-03T12:45:40;11.93;;;11.30;;
8361;SDS011;4218;48.326;14.304;2023-04-03T12:48:13;12.30;;;11.60;;
8361;SDS011;4218;48.326;14.304;2023-04-03T12:51:03;15.30;;;14.50;;
8361;SDS011;4218;48.326;14.304;2023-04-03T12:53:34;11.77;;;11.27;;
8361;SDS011;4218;48.326;14.304;2023-04-03T12:56:19;10.73;;;10.03;;
8361;SDS011;4218;48.326;14.304;2023-04-03T12:58:50;9.63;;;9.23;;
8361;SDS011;4218;48.326;14.304;2023-04-03T13:01:20;11.20;;;10.70;;
8361;SDS011;4218;48.326;14.304;2023-04-03T13:03:49;10.93;;;10.27;;
8361;SDS011;4218;48.326;14.304;2023-04-03T13:06:41;10.63;;;10.10;;
8361;SDS011;4218;48.326;14.304;2023-04-03T13:11:56;10.87;;;10.37;;
8361;SDS011;4218;48.326;14.304;2023-04-03T13:14:54;10.40;;;9.90;;
8361;SDS011;4218;48.326;14.304;2023-04-03T13:17:30;11.73;;;11.20;;
8361;SDS011;4218;48.326;14.304;2023-04-03T13:19:57;13.33;;;12.60;;
8361;SDS011;4218;48.326;14.304;2023-04-03T13:22:58;10.53;;;10.00;;
8361;SDS011;4218;48.326;14.304;2023-04-03T13:25:40;10.37;;;9.87;;
8361;SDS011;4218;48.326;14.304;2023-04-03T13:28:09;10.03;;;9.57;;
8361;SDS011;4218;48.326;14.304;2023-04-03T13:37:04;12.53;;;12.03;;
8361;SDS011;4218;48.326;14.304;2023-04-03T13:39:35;10.40;;;9.83;;
8361;SDS011;4218;48.326;14.304;2023-04-03T13:42:24;9.00;;;8.60;;
8361;SDS011;4218;48.326;14.304;2023-04-03T13:47:45;17.57;;;16.67;;
8361;SDS011;4218;48.326;14.304;2023-04-03T13:50:26;11.60;;;11.10;;
8361;SDS011;4218;48.326;14.304;2023-04-03T13:53:11;11.13;;;10.63;;
8361;SDS011;4218;48.326;14.304;2023-04-03T13:58:33;12.20;;;11.70;;
8361;SDS011;4218;48.326;14.304;2023-04-03T14:06:46;9.70;;;9.20;;
8361;SDS011;4218;48.326;14.304;2023-04-03T14:09:15;12.67;;;12.17;;
8361;SDS011;4218;48.326;14.304;2023-04-03T14:12:04;12.73;;;12.10;;
8361;SDS011;4218;48.326;14.304;2023-04-03T14:15:00;12.53;;;11.73;;
8361;SDS011;4218;48.326;14.304;2023-04-03T14:17:26;12.47;;;11.97;;
8361;SDS011;4218;48.326;14.304;2023-04-03T14:22:53;14.60;;;13.80;;
8361;SDS011;4218;48.326;14.304;2023-04-03T14:25:42;13.50;;;12.90;;
8361;SDS011;4218;48.326;14.304;2023-04-03T14:28:15;14.93;;;14.27;;
8361;SDS011;4218;48.326;14.304;2023-04-03T14:30:48;12.43;;;11.83;;
8361;SDS011;4218;48.326;14.304;2023-04-03T14:33:21;12.60;;;12.00;;
8361;SDS011;4218;48.326;14.304;2023-04-03T14:35:52;11.10;;;10.50;;
8361;SDS011;4218;48.326;14.304;2023-04-03T14:38:30;9.90;;;9.50;;
8361;SDS011;4218;48.326;14.304;2023-04-03T14:40:56;11.67;;;11.07;;
8361;SDS011;4218;48.326;14.304;2023-04-03T14:43:28;10.33;;;9.83;;
8361;SDS011;4218;48.326;14.304;2023-04-03T14:45:59;11.87;;;11.30;;
8361;SDS011;4218;48.326;14.304;2023-04-03T14:48:37;10.97;;;10.37;;
8361;SDS011;4218;48.326;14.304;2023-04-03T14:51:21;13.37;;;12.67;;
8361;SDS011;4218;48.326;14.304;2023-04-03T14:53:46;13.33;;;12.73;;
8361;SDS011;4218;48.326;14.304;2023-04-03T14:56:24;11.80;;;11.20;;
8361;SDS011;4218;48.326;14.304;2023-04-03T14:58:58;10.27;;;9.67;;
8361;SDS011;4218;48.326;14.304;2023-04-03T15:01:29;11.53;;;10.93;;
8361;SDS011;4218;48.326;14.304;2023-04-03T15:03:55;10.60;;;10.10;;
8361;SDS011;4218;48.326;14.304;2023-04-03T15:06:25;13.97;;;13.23;;
8361;SDS011;4218;48.326;14.304;2023-04-03T15:08:58;10.50;;;10.07;;
8361;SDS011;4218;48.326;14.304;2023-04-03T15:11:25;14.83;;;13.70;;
8361;SDS011;4218;48.326;14.304;2023-04-03T15:13:51;11.50;;;10.90;;
8361;SDS011;4218;48.326;14.304;2023-04-03T15:16:20;11.57;;;10.97;;
8361;SDS011;4218;48.326;14.304;2023-04-03T15:18:54;10.43;;;10.00;;
8361;SDS011;4218;48.326;14.304;2023-04-03T15:21:20;14.03;;;13.33;;
8361;SDS011;4218;48.326;14.304;2023-04-03T15:23:45;12.57;;;11.93;;
8361;SDS011;4218;48.326;14.304;2023-04-03T15:26:11;14.40;;;13.60;;
8361;SDS011;4218;48.326;14.304;2023-04-03T15:28:39;13.50;;;12.90;;
8361;SDS011;4218;48.326;14.304;2023-04-03T15:31:07;13.43;;;12.73;;
8361;SDS011;4218;48.326;14.304;2023-04-03T15:33:33;12.00;;;11.30;;
8361;SDS011;4218;48.326;14.304;2023-04-03T15:35:59;13.30;;;12.70;;
8361;SDS011;4218;48.326;14.304;2023-04-03T15:38:25;12.93;;;12.33;;
8361;SDS011;4218;48.326;14.304;2023-04-03T15:40:50;11.03;;;10.53;;
8361;SDS011;4218;48.326;14.304;2023-04-03T15:43:16;15.87;;;15.17;;
8361;SDS011;4218;48.326;14.304;2023-04-03T15:45:44;14.43;;;13.73;;
8361;SDS011;4218;48.326;14.304;2023-04-03T15:48:17;15.67;;;14.87;;
8361;SDS011;4218;48.326;14.304;2023-04-03T15:50:45;18.67;;;17.67;;
8361;SDS011;4218;48.326;14.304;2023-04-03T15:53:11;16.10;;;15.40;;
8361;SDS011;4218;48.326;14.304;2023-04-03T15:55:37;12.47;;;11.87;;
8361;SDS011;4218;48.326;14.304;2023-04-03T15:58:03;11.07;;;10.37;;
8361;SDS011;4218;48.326;14.304;2023-04-03T16:00:29;11.07;;;10.53;;
8361;SDS011;4218;48.326;14.304;2023-04-03T16:03:01;10.83;;;10.10;;
8361;SDS011;4218;48.326;14.304;2023-04-03T16:05:33;11.30;;;10.57;;
8361;SDS011;4218;48.326;14.304;2023-04-03T16:08:01;10.80;;;10.10;;
8361;SDS011;4218;48.326;14.304;2023-04-03T16:10:27;10.93;;;10.40;;
8361;SDS011;4218;48.326;14.304;2023-04-03T16:12:53;11.33;;;10.80;;
8361;SDS011;4218;48.326;14.304;2023-04-03T16:15:19;12.50;;;11.90;;
8361;SDS011;4218;48.326;14.304;2023-04-03T16:17:44;12.07;;;11.07;;
8361;SDS011;4218;48.326;14.304;2023-04-03T16:20:10;11.07;;;10.47;;
8361;SDS011;4218;48.326;14.304;2023-04-03T16:22:37;11.57;;;10.97;;
8361;SDS011;4218;48.326;14.304;2023-04-03T16:25:04;13.10;;;12.40;;
8361;SDS011;4218;48.326;14.304;2023-04-03T16:27:31;15.63;;;14.73;;
8361;SDS011;4218;48.326;14.304;2023-04-03T16:29:59;10.10;;;9.60;;
8361;SDS011;4218;48.326;14.304;2023-04-03T16:32:29;13.37;;;12.67;;
8361;SDS011;4218;48.326;14.304;2023-04-03T16:34:56;15.03;;;14.40;;
8361;SDS011;4218;48.326;14.304;2023-04-03T16:37:22;14.20;;;13.53;;
8361;SDS011;4218;48.326;14.304;2023-04-03T16:39:47;12.00;;;11.40;;
8361;SDS011;4218;48.326;14.304;2023-04-03T16:42:13;13.93;;;12.97;;
8361;SDS011;4218;48.326;14.304;2023-04-03T16:44:38;15.87;;;15.13;;
8361;SDS011;4218;48.326;14.304;2023-04-03T16:47:04;12.13;;;11.53;;
8361;SDS011;4218;48.326;14.304;2023-04-03T16:49:31;10.37;;;9.97;;
8361;SDS011;4218;48.326;14.304;2023-04-03T16:52:00;11.60;;;11.10;;
8361;SDS011;4218;48.326;14.304;2023-04-03T16:54:26;12.80;;;12.10;;
8361;SDS011;4218;48.326;14.304;2023-04-03T16:56:52;13.83;;;12.90;;
8361;SDS011;4218;48.326;14.304;2023-04-03T16:59:17;13.40;;;12.80;;
8361;SDS011;4218;48.326;14.304;2023-04-03T17:01:43;12.30;;;11.60;;
8361;SDS011;4218;48.326;14.304;2023-04-03T17:04:09;12.57;;;11.87;;
8361;SDS011;4218;48.326;14.304;2023-04-03T17:06:34;16.90;;;15.87;;
8361;SDS011;4218;48.326;14.304;2023-04-03T17:09:00;14.00;;;13.33;;
8361;SDS011;4218;48.326;14.304;2023-04-03T17:11:26;10.97;;;10.37;;
8361;SDS011;4218;48.326;14.304;2023-04-03T17:13:52;15.17;;;14.20;;